Hillman, MN (56338)

8:43 PM CST on February 21, 2017 (GMT -0600)
Gotvald's Corner | | Change Station
Active Advisory: Flood Warning

Elev 1295 ft 45.90 °N, 93.85 °W | Updated 1 second ago

Mostly Cloudy
Mostly Cloudy
41.5 °F
Feels Like 38 °F
N
5.3
Wind Variable Wind from West
Gusts 5.8 mph

Today
High -- | Low -- °F
--% Chance of Precip.
Yesterday
High -- | Low -- °F
Precip. -- in
Pressure 29.70 in
Visibility 10.0 miles
Clouds Scattered Clouds 12000 ft
Windchill 38 °F
Dew Point 40 °F
Humidity 94%
Rainfall 0.00 in
Snow Depth Not available.
7:07 AM 5:51 PM
Waning Crescent, 21% visible
METAR KLXL 220232Z AUTO 00000KT 10SM SCT120 05/03 A2970 RMK AO2
Pressure 29.70 in
Visibility 10.0 miles
Clouds Scattered Clouds 12000 ft
Windchill 38 °F
Dew Point 40 °F
Humidity 94%
Rainfall 0.00 in
Snow Depth Not available.
7:07 AM 5:51 PM
Waning Crescent, 21% visible
METAR KLXL 220232Z AUTO 00000KT 10SM SCT120 05/03 A2970 RMK AO2

Get Your Daily Forecast Email!

Thanks for signing up!

Be on the lookout for a verification email in your inbox.

You'll start receiving the daily forecast at 8 AM.

×

10-Day Weather Forecast

Almanac

Astronomy

Feb. 21, 2017 Rise Set
Actual Time
Civil Twilight
Nautical Twilight
Astronomical Twilight
Moon
Length of Visible Light
Length of Day
Tomorrow will be .
, % of the Moon is Illuminated

Today's Extremes

State Highs State Lows

Community

WunderPhotos

Upload Photos

1,962,540 photos uploaded!

WunderBlog® & News

Nearby

Air Quality

  Air Quality AQ Index Pollutant
Not available.

Snow Depth

Station Depth Elevation

Earthquake Activity

City Distance Mag. Time & Date
Minimum magnitude displayed is 2.5.

Coastal Water Temperatures

Place Temperature

Stations

Nearby Weather Stations

Station Location Temp. Windchill Dew Point Humidity Wind Precip. Elev Updated Type
                   

Watches & Warnings

Flood Warning
Issued: 8:00 PM CST Feb. 21, 2017 – National Weather Service

The Flood Warning continues for
the Mississippi River near Fort Ripley.
* From Saturday morning until further notice.
* At 7:30 PM Tuesday the stage was 8.5 feet.
* Flood stage is 10.0 feet.
* Minor flooding is forecast.
* Forecast... rise above flood stage by Saturday morning and continue
to rise to near 10.5 feet by early Monday morning.
* At 11.0 feet... this will cause minor flooding of rural areas near
Fort Ripley..
this crest compares to a previous crest of 12.2 feet on may 18 1999.




Lat... Lon 4644 9420 4630 9420 4617 9423 4616 9440
      4626 9442


Wm